Time;durP1;ratioP1;P1;durP2;ratioP2;P2;SDS_P1;SDS_P2;PMS_P1;PMS_P2;Temp;Humidity;BMP_temperature;BMP_pressure;BME280_temperature;BME280_humidity;BME280_pressure;Samples;Min_cycle;Max_cycle;Signal;HPM_P1;HPM_P2
2021/07/03 00:00:27;;;;;;;2.60;2.40;;;;;;;18.15;82.19;100230.13;1666915;82;25913;-76
2021/07/03 00:02:56;;;;;;;3.70;2.50;;;;;;;18.12;82.30;100230.59;1689788;82;26036;-75
2021/07/03 00:05:23;;;;;;;4.05;2.67;;;;;;;18.09;81.98;100233.26;1728293;82;28258;-75
2021/07/03 00:07:50;;;;;;;2.98;2.77;;;;;;;18.10;82.78;100225.95;1713133;82;25788;-75
2021/07/03 00:10:18;;;;;;;2.90;2.70;;;;;;;18.07;82.99;100224.55;1713345;82;25853;-75
2021/07/03 00:12:45;;;;;;;3.85;2.70;;;;;;;18.05;82.83;100219.91;1713151;82;26460;-75
2021/07/03 00:15:20;;;;;;;3.17;2.87;;;;;;;18.06;82.81;100222.09;1728411;82;25900;-75
2021/07/03 00:17:45;;;;;;;2.37;2.17;;;;;;;18.06;83.04;100221.56;1691712;82;27486;-76
2021/07/03 00:20:13;;;;;;;2.40;2.20;;;;;;;18.04;83.87;100219.63;1687943;82;25790;-75
2021/07/03 00:22:40;;;;;;;3.12;2.60;;;;;;;18.02;82.84;100218.23;1727382;81;25984;-76
2021/07/03 00:25:09;;;;;;;3.95;2.40;;;;;;;18.01;83.15;100217.40;1696284;84;26329;-76
2021/07/03 00:27:36;;;;;;;2.42;2.22;;;;;;;18.00;83.37;100221.19;1622647;84;25828;-76
2021/07/03 00:30:05;;;;;;;2.72;2.52;;;;;;;18.00;83.42;100219.01;1627016;84;27376;-75
2021/07/03 00:32:32;;;;;;;2.67;2.42;;;;;;;17.98;83.48;100215.72;1690002;84;25933;-75
2021/07/03 00:34:59;;;;;;;2.35;2.17;;;;;;;17.97;83.90;100218.12;1699020;84;26026;-75
2021/07/03 00:37:26;;;;;;;2.60;2.40;;;;;;;17.94;83.79;100211.30;1669198;84;26430;-75
2021/07/03 00:39:53;;;;;;;2.17;2.02;;;;;;;17.92;83.88;100208.02;1649039;84;25355;-75
2021/07/03 00:42:20;;;;;;;2.20;2.00;;;;;;;17.93;84.25;100216.45;1690001;84;28363;-76
2021/07/03 00:44:47;;;;;;;2.40;2.20;;;;;;;17.91;84.46;100207.74;1695973;84;25756;-74
2021/07/03 00:47:14;;;;;;;2.27;1.90;;;;;;;17.89;85.38;100202.27;1644010;84;26633;-75
2021/07/03 00:49:43;;;;;;;3.33;2.45;;;;;;;17.85;84.81;100203.30;1649673;84;26030;-75
2021/07/03 00:52:11;;;;;;;2.65;2.17;;;;;;;17.86;85.02;100205.45;1667864;84;25891;-75
2021/07/03 00:54:41;;;;;;;3.10;1.75;;;;;;;17.86;85.51;100204.10;1695879;84;27458;-75
2021/07/03 00:57:09;;;;;;;;;;;;;;;17.84;85.31;100206.23;1671122;84;25869;-75
2021/07/03 00:59:44;;;;;;;2.90;2.20;;;;;;;17.83;85.36;100204.61;1638383;84;26478;-75
2021/07/03 01:02:18;;;;;;;2.10;1.90;;;;;;;17.81;85.68;100203.50;1687861;84;26600;-75
2021/07/03 01:04:46;;;;;;;3.02;2.22;;;;;;;17.80;86.05;100207.79;1666713;83;25844;-75
2021/07/03 01:07:14;;;;;;;2.55;2.35;;;;;;;17.78;86.34;100194.50;1637419;84;27631;-75
2021/07/03 01:09:42;;;;;;;2.52;2.00;;;;;;;17.77;86.04;100198.25;1654350;84;26603;-75
2021/07/03 01:12:10;;;;;;;2.20;2.00;;;;;;;17.80;86.09;100197.78;1717021;83;25832;-75
2021/07/03 01:14:44;;;;;;;2.33;2.12;;;;;;;17.81;86.12;100196.73;1637480;84;25821;-76
2021/07/03 01:17:14;;;;;;;3.33;2.25;;;;;;;17.82;86.35;100196.17;1650138;84;25822;-76
2021/07/03 01:19:43;;;;;;;3.55;3.10;;;;;;;17.81;86.44;100195.90;1636692;84;27409;-75
2021/07/03 01:22:19;;;;;;;2.50;2.30;;;;;;;17.81;86.22;100200.80;1689839;84;25818;-75
2021/07/03 01:24:47;;;;;;;2.92;2.55;;;;;;;17.79;86.89;100192.61;1688647;83;25829;-75
2021/07/03 01:27:15;;;;;;;2.27;2.10;;;;;;;17.75;87.31;100187.40;1696843;83;25865;-75
2021/07/03 01:29:43;;;;;;;2.77;2.15;;;;;;;17.73;86.80;100191.16;1723972;83;25308;-75
2021/07/03 01:32:11;;;;;;;4.28;2.55;;;;;;;17.73;87.25;100182.20;1670528;83;28225;-75
2021/07/03 01:34:39;;;;;;;3.15;2.55;;;;;;;17.73;86.96;100192.23;1697201;83;25936;-75
2021/07/03 01:37:07;;;;;;;2.72;2.52;;;;;;;17.70;87.26;100186.77;1720937;83;25719;-75
2021/07/03 01:39:36;;;;;;;2.67;2.47;;;;;;;17.71;87.03;100180.27;1723567;83;25797;-75
2021/07/03 01:42:11;;;;;;;2.70;2.50;;;;;;;17.70;87.16;100182.70;1656074;82;25810;-76
2021/07/03 01:44:35;;;;;;;3.05;2.85;;;;;;;17.68;87.12;100181.57;1703151;82;27589;-75
2021/07/03 01:47:04;;;;;;;3.08;2.65;;;;;;;17.67;87.75;100177.23;1707356;82;25863;-75
2021/07/03 01:49:35;;;;;;;3.42;2.72;;;;;;;17.68;87.70;100181.57;1695775;82;25926;-75
2021/07/03 01:52:03;;;;;;;4.33;3.22;;;;;;;17.67;87.40;100178.59;1669300;81;26957;-74
2021/07/03 01:54:31;;;;;;;4.80;3.08;;;;;;;17.63;88.09;100186.91;1685689;84;25743;-75
2021/07/03 01:56:59;;;;;;;3.47;2.95;;;;;;;17.60;88.32;100181.14;1700193;84;27550;-75
2021/07/03 01:59:32;;;;;;;4.28;3.22;;;;;;;17.59;88.42;100180.87;1713359;83;25787;-75
2021/07/03 02:02:03;;;;;;;3.05;2.85;;;;;;;17.56;88.61;100174.56;1700616;83;25777;-75
2021/07/03 02:04:32;;;;;;;3.33;3.02;;;;;;;17.55;88.63;100181.89;1701464;83;25904;-75
2021/07/03 02:07:00;;;;;;;3.55;3.25;;;;;;;17.54;88.56;100178.05;1725377;82;26537;-75
2021/07/03 02:09:28;;;;;;;3.83;3.52;;;;;;;17.54;89.11;100177.53;1726256;83;27680;-75
2021/07/03 02:11:57;;;;;;;4.17;3.55;;;;;;;17.54;88.76;100175.34;1700792;83;26546;-74
2021/07/03 02:14:26;;;;;;;3.30;2.98;;;;;;;17.54;88.71;100178.88;1678194;83;26509;-76
2021/07/03 02:16:58;;;;;;;3.50;3.20;;;;;;;17.55;89.09;100179.19;1721752;83;26525;-75
2021/07/03 02:19:25;;;;;;;6.37;3.45;;;;;;;17.55;88.93;100172.42;1700880;83;25916;-76
2021/07/03 02:21:53;;;;;;;3.15;2.70;;;;;;;17.54;88.93;100169.92;1677294;83;27458;-75
2021/07/03 02:24:22;;;;;;;3.67;3.30;;;;;;;17.54;89.43;100176.70;1734948;81;25803;-75
2021/07/03 02:26:50;;;;;;;4.30;3.90;;;;;;;17.53;89.74;100175.07;1730038;81;25781;-75
2021/07/03 02:29:17;;;;;;;3.80;3.30;;;;;;;17.52;90.25;100163.94;1756068;81;25863;-75
2021/07/03 02:31:44;;;;;;;4.20;3.80;;;;;;;17.51;89.69;100164.45;1681417;81;25873;-75
2021/07/03 02:34:13;;;;;;;4.22;3.67;;;;;;;17.52;89.58;100168.83;1684132;81;27467;-75
2021/07/03 02:36:40;;;;;;;3.58;3.20;;;;;;;17.54;89.47;100163.16;1730338;81;25773;-75
2021/07/03 02:39:09;;;;;;;6.10;3.40;;;;;;;17.56;89.72;100171.86;1755805;81;25902;-75
2021/07/03 02:41:38;;;;;;;3.58;3.27;;;;;;;17.57;90.09;100173.52;1705414;81;26458;-76
2021/07/03 02:44:06;;;;;;;3.20;3.00;;;;;;;17.55;90.03;100177.83;1730376;81;26487;-75
2021/07/03 02:46:33;;;;;;;4.40;3.70;;;;;;;17.56;90.12;100181.34;1729454;81;27642;-75
2021/07/03 02:49:01;;;;;;;3.50;3.22;;;;;;;17.56;90.40;100183.52;1755180;81;25729;-75
2021/07/03 02:51:29;;;;;;;3.67;3.17;;;;;;;17.55;89.97;100186.48;1705714;81;26609;-75
2021/07/03 02:53:56;;;;;;;3.60;3.30;;;;;;;17.55;90.83;100187.84;1705924;81;25991;-75
2021/07/03 02:56:23;;;;;;;3.95;3.65;;;;;;;17.53;90.82;100189.44;1730300;81;25824;-75
2021/07/03 02:58:50;;;;;;;4.17;3.87;;;;;;;17.54;90.42;100191.59;1755546;81;27497;-75
2021/07/03 03:01:18;;;;;;;3.35;3.05;;;;;;;17.55;91.05;100190.55;1705177;81;25757;-75
2021/07/03 03:03:45;;;;;;;3.98;3.62;;;;;;;17.54;90.82;100182.94;1682248;81;25781;-75
2021/07/03 03:06:14;;;;;;;4.92;3.52;;;;;;;17.54;90.86;100179.41;1706390;81;25785;-75
2021/07/03 03:08:43;;;;;;;4.00;3.60;;;;;;;17.55;90.92;100181.89;1755645;81;25864;-75
2021/07/03 03:11:11;;;;;;;4.70;4.08;;;;;;;17.55;91.07;100173.77;1705671;81;28352;-76
2021/07/03 03:13:38;;;;;;;4.78;4.28;;;;;;;17.57;91.08;100175.70;1706513;81;25891;-76
2021/07/03 03:16:07;;;;;;;4.33;3.50;;;;;;;17.58;91.25;100176.50;1707315;81;25668;-75
2021/07/03 03:18:34;;;;;;;3.98;3.67;;;;;;;17.58;91.75;100180.56;1756201;81;25964;-75
2021/07/03 03:21:02;;;;;;;4.33;3.92;;;;;;;17.57;91.29;100179.77;1705135;81;26237;-74
2021/07/03 03:23:30;;;;;;;4.62;3.52;;;;;;;17.59;91.11;100189.82;1706214;81;27649;-75
2021/07/03 03:25:57;;;;;;;4.50;4.10;;;;;;;17.61;91.09;100191.75;1702616;83;25838;-74
2021/07/03 03:28:25;;;;;;;4.20;3.80;;;;;;;17.62;91.66;100189.87;1726002;83;25610;-75
2021/07/03 03:30:52;;;;;;;4.10;3.70;;;;;;;17.60;91.49;100190.09;1693076;83;25816;-75
2021/07/03 03:33:21;;;;;;;3.60;3.25;;;;;;;17.60;92.32;100194.16;1678116;83;25840;-75
2021/07/03 03:35:48;;;;;;;3.98;3.20;;;;;;;17.60;91.90;100194.69;1709842;81;28272;-75
2021/07/03 03:38:15;;;;;;;3.25;2.87;;;;;;;17.60;92.36;100200.09;1719642;81;26517;-75
2021/07/03 03:40:43;;;;;;;3.15;2.85;;;;;;;17.62;92.15;100191.23;1695205;83;26580;-75
2021/07/03 03:43:11;;;;;;;3.05;2.65;;;;;;;17.64;91.81;100193.16;1690852;82;26662;-75
2021/07/03 03:45:40;;;;;;;4.42;3.40;;;;;;;17.67;92.07;100196.72;1684684;82;25624;-75
2021/07/03 03:48:08;;;;;;;3.17;2.87;;;;;;;17.69;91.51;100190.00;1717234;82;27585;-75
2021/07/03 03:50:37;;;;;;;4.40;4.00;;;;;;;17.69;92.33;100183.23;1715552;81;25971;-75
2021/07/03 03:53:05;;;;;;;4.00;3.15;;;;;;;17.69;91.91;100183.75;1712814;82;25921;-74
2021/07/03 03:55:32;;;;;;;4.33;3.40;;;;;;;17.69;91.89;100175.63;1699475;82;26513;-75
2021/07/03 03:57:59;;;;;;;3.30;3.00;;;;;;;17.68;92.36;100165.87;1679534;82;25881;-75
2021/07/03 04:00:27;;;;;;;3.20;3.00;;;;;;;17.65;93.03;100173.12;1720873;81;27545;-75
2021/07/03 04:03:02;;;;;;;4.05;2.85;;;;;;;17.60;93.13;100181.97;1699170;83;25782;-76
2021/07/03 04:05:36;;;;;;;3.95;3.65;;;;;;;17.58;93.04;100175.14;1691618;83;25910;-75
2021/07/03 04:08:04;;;;;;;4.05;3.62;;;;;;;17.54;93.28;100187.53;1705421;83;26432;-75
2021/07/03 04:10:32;;;;;;;4.58;3.52;;;;;;;17.53;92.99;100190.80;1716964;83;25926;-75
2021/07/03 04:12:59;;;;;;;5.30;3.72;;;;;;;17.54;93.34;100192.95;1671015;82;27596;-75
2021/07/03 04:15:26;;;;;;;4.15;3.50;;;;;;;17.52;94.24;100189.66;1675731;81;25913;-75
2021/07/03 04:17:53;;;;;;;3.83;3.42;;;;;;;17.52;94.52;100191.84;1666106;83;26634;-75
2021/07/03 04:20:20;;;;;;;7.30;4.05;;;;;;;17.52;93.91;100188.30;1719640;83;26489;-75
2021/07/03 04:22:48;;;;;;;3.92;3.52;;;;;;;17.52;94.26;100184.25;1682328;83;25870;-75
2021/07/03 04:25:15;;;;;;;5.08;4.03;;;;;;;17.51;94.39;100185.33;1712259;82;28266;-75
2021/07/03 04:27:43;;;;;;;5.37;4.65;;;;;;;17.53;94.58;100184.55;1676055;82;26358;-75
2021/07/03 04:30:11;;;;;;;4.97;4.47;;;;;;;17.52;94.62;100188.30;1723754;82;25999;-75
2021/07/03 04:32:40;;;;;;;5.50;4.80;;;;;;;17.52;94.52;100191.02;1687714;82;26032;-75
2021/07/03 04:35:10;;;;;;;4.55;4.15;;;;;;;17.51;94.75;100192.89;1694839;83;25993;-75
2021/07/03 04:37:38;;;;;;;5.40;4.80;;;;;;;17.51;95.14;100182.06;1693707;83;27870;-75
2021/07/03 04:40:07;;;;;;;8.85;5.10;;;;;;;17.50;95.01;100185.84;1690198;83;26552;-75
2021/07/03 04:42:35;;;;;;;10.03;5.20;;;;;;;17.48;95.23;100190.66;1698182;82;25849;-75
2021/07/03 04:45:03;;;;;;;5.40;4.90;;;;;;;17.48;94.85;100197.42;1694297;83;25783;-75
2021/07/03 04:47:32;;;;;;;11.50;4.92;;;;;;;17.48;95.68;100195.23;1697946;83;25849;-75
2021/07/03 04:49:59;;;;;;;8.93;4.83;;;;;;;17.46;95.55;100196.02;1711734;81;27641;-75
2021/07/03 04:52:26;;;;;;;4.67;4.22;;;;;;;17.47;95.96;100204.44;1689519;81;26558;-76
2021/07/03 04:54:53;;;;;;;5.47;4.97;;;;;;;17.45;95.59;100201.95;1668957;81;25752;-75
2021/07/03 04:57:20;;;;;;;4.62;4.08;;;;;;;17.45;95.98;100196.54;1637742;83;26363;-76
2021/07/03 04:59:47;;;;;;;4.62;4.22;;;;;;;17.46;96.42;100201.43;1715321;82;26600;-75
2021/07/03 05:02:15;;;;;;;5.72;3.77;;;;;;;17.46;96.39;100202.78;1704808;82;27650;-75
2021/07/03 05:04:43;;;;;;;6.90;4.15;;;;;;;17.45;96.20;100193.03;1693744;82;26060;-76
2021/07/03 05:07:11;;;;;;;4.33;3.92;;;;;;;17.47;96.37;100194.97;1676802;82;25952;-76
2021/07/03 05:09:43;;;;;;;5.85;4.20;;;;;;;17.46;96.06;100196.02;1717936;82;25882;-75
2021/07/03 05:12:10;;;;;;;5.55;4.53;;;;;;;17.47;96.48;100190.34;1678094;83;26392;-75
2021/07/03 05:14:37;;;;;;;4.55;3.90;;;;;;;17.49;96.21;100190.13;1666767;83;27593;-75
2021/07/03 05:17:04;;;;;;;6.58;3.75;;;;;;;17.50;96.44;100191.27;1667354;84;26480;-75
2021/07/03 05:19:31;;;;;;;3.95;3.52;;;;;;;17.53;96.38;100193.50;1703281;83;25814;-75
2021/07/03 05:21:58;;;;;;;3.77;3.37;;;;;;;17.53;96.77;100189.97;1672137;83;26483;-75
2021/07/03 05:24:25;;;;;;;4.55;4.10;;;;;;;17.54;97.02;100189.72;1687967;83;25854;-76
2021/07/03 05:26:52;;;;;;;4.92;4.05;;;;;;;17.58;96.38;100192.75;1673530;83;27544;-75
2021/07/03 05:29:20;;;;;;;5.30;3.72;;;;;;;17.62;96.66;100195.30;1709952;82;26019;-76
2021/07/03 05:31:47;;;;;;;4.15;3.75;;;;;;;17.65;96.59;100197.50;1692953;83;25922;-75
2021/07/03 05:34:14;;;;;;;4.08;3.02;;;;;;;17.67;96.49;100192.13;1661060;84;25873;-75
2021/07/03 05:36:41;;;;;;;3.62;3.08;;;;;;;17.71;96.43;100192.45;1667976;83;26834;-76
2021/07/03 05:39:08;;;;;;;3.35;2.83;;;;;;;17.74;96.45;100198.76;1717869;83;27549;-75
2021/07/03 05:41:35;;;;;;;3.12;2.92;;;;;;;17.76;96.53;100187.67;1672760;83;25797;-75
2021/07/03 05:44:03;;;;;;;3.42;3.05;;;;;;;17.79;96.66;100191.27;1685221;83;26433;-76
2021/07/03 05:46:30;;;;;;;3.50;3.20;;;;;;;17.82;96.86;100186.16;1670804;83;25838;-75
2021/07/03 05:48:57;;;;;;;3.98;2.70;;;;;;;17.85;96.89;100192.47;1721239;83;25741;-75
2021/07/03 05:51:25;;;;;;;4.08;3.00;;;;;;;17.89;96.77;100194.14;1670851;83;27659;-75
2021/07/03 05:53:52;;;;;;;4.47;2.83;;;;;;;17.90;96.51;100195.24;1695927;83;25997;-76
2021/07/03 05:56:19;;;;;;;3.10;2.87;;;;;;;17.92;96.13;100190.95;1671180;83;25951;-75
2021/07/03 05:58:46;;;;;;;4.25;2.65;;;;;;;17.96;96.03;100198.36;1694861;83;25886;-75
2021/07/03 06:01:14;;;;;;;2.60;2.40;;;;;;;18.01;95.84;100199.78;1671063;83;25794;-75
2021/07/03 06:03:41;;;;;;;3.12;2.33;;;;;;;18.05;95.91;100198.78;1670721;83;27659;-75
2021/07/03 06:06:08;;;;;;;2.75;2.40;;;;;;;18.08;95.98;100203.17;1648414;83;26520;-76
2021/07/03 06:08:35;;;;;;;2.70;2.50;;;;;;;18.11;96.07;100210.79;1694197;83;25578;-75
2021/07/03 06:11:02;;;;;;;2.67;2.47;;;;;;;18.14;95.66;100211.67;1670583;83;26563;-75
2021/07/03 06:13:29;;;;;;;5.65;2.75;;;;;;;18.18;95.51;100211.98;1694113;83;25693;-76
2021/07/03 06:15:56;;;;;;;2.75;2.40;;;;;;;18.19;95.28;100209.58;1672351;83;27721;-75
2021/07/03 06:18:25;;;;;;;3.87;2.42;;;;;;;18.23;95.50;100210.73;1725194;83;25918;-76
2021/07/03 06:20:52;;;;;;;2.87;2.67;;;;;;;18.24;95.30;100213.74;1694487;83;26712;-75
2021/07/03 06:23:20;;;;;;;4.15;2.83;;;;;;;18.20;95.11;100214.75;1694565;83;25941;-75
2021/07/03 06:25:47;;;;;;;4.47;2.83;;;;;;;18.23;95.13;100225.12;1685343;84;25829;-74
2021/07/03 06:28:14;;;;;;;3.27;2.98;;;;;;;18.25;94.78;100221.62;1697572;83;28227;-75
2021/07/03 06:30:41;;;;;;;4.50;3.50;;;;;;;18.25;95.01;100228.41;1677143;84;25831;-75
2021/07/03 06:33:08;;;;;;;3.95;3.65;;;;;;;18.20;94.55;100234.25;1676632;84;26024;-74
2021/07/03 06:35:35;;;;;;;3.42;3.12;;;;;;;18.18;94.77;100230.44;1643925;84;26615;-74
2021/07/03 06:38:03;;;;;;;4.25;3.42;;;;;;;18.17;94.67;100238.30;1676831;84;25901;-76
2021/07/03 06:40:31;;;;;;;3.83;3.52;;;;;;;18.18;94.80;100230.97;1654706;84;27424;-75
2021/07/03 06:42:58;;;;;;;5.00;3.67;;;;;;;18.18;94.66;100238.58;1676832;84;25798;-76
2021/07/03 06:45:25;;;;;;;5.00;3.77;;;;;;;18.21;94.68;100238.62;1644132;84;25850;-75
2021/07/03 06:47:53;;;;;;;4.15;3.85;;;;;;;18.22;94.62;100240.28;1708708;82;26572;-75
2021/07/03 06:50:20;;;;;;;4.25;3.85;;;;;;;18.21;94.55;100240.81;1685787;82;25869;-76
2021/07/03 06:52:47;;;;;;;4.75;4.20;;;;;;;18.19;94.35;100238.05;1694462;82;27524;-75
2021/07/03 06:55:15;;;;;;;5.00;3.67;;;;;;;18.20;94.46;100238.32;1691845;82;26186;-75
2021/07/03 06:57:42;;;;;;;4.70;4.30;;;;;;;18.20;94.85;100236.44;1745829;82;25359;-76
2021/07/03 07:00:10;;;;;;;4.30;3.80;;;;;;;18.21;94.61;100238.09;1634962;81;25872;-78
2021/07/03 07:02:37;;;;;;;5.80;4.53;;;;;;;18.20;94.95;100239.15;1667779;81;26607;-75
2021/07/03 07:05:08;;;;;;;4.87;4.35;;;;;;;18.21;94.57;100237.27;1672240;82;27096;-75
2021/07/03 07:07:36;;;;;;;6.15;4.53;;;;;;;18.20;94.77;100241.86;1712143;81;26324;-76
2021/07/03 07:10:05;;;;;;;4.95;4.28;;;;;;;18.19;94.48;100244.30;1675694;83;26373;-77
2021/07/03 07:12:32;;;;;;;5.28;4.80;;;;;;;18.19;94.41;100244.30;1694026;83;26670;-74
2021/07/03 07:14:59;;;;;;;5.67;4.97;;;;;;;18.20;94.44;100251.34;1673228;83;26406;-75
2021/07/03 07:17:26;;;;;;;4.62;4.22;;;;;;;18.20;94.43;100247.28;1685369;83;27403;-74
2021/07/03 07:19:53;;;;;;;7.00;5.78;;;;;;;18.20;94.48;100247.28;1716031;83;25810;-75
2021/07/03 07:22:20;;;;;;;8.68;5.58;;;;;;;18.20;94.46;100247.80;1690913;83;25881;-75
2021/07/03 07:24:47;;;;;;;6.15;5.55;;;;;;;18.20;94.46;100252.70;1703985;83;25774;-74
2021/07/03 07:27:14;;;;;;;8.00;6.03;;;;;;;18.20;94.57;100249.16;1677227;84;26129;-75
2021/07/03 07:29:41;;;;;;;6.97;6.30;;;;;;;18.20;94.28;100246.45;1708405;83;27531;-75
2021/07/03 07:32:09;;;;;;;8.10;6.15;;;;;;;18.22;94.52;100245.70;1693357;83;25839;-78
2021/07/03 07:34:36;;;;;;;6.30;5.80;;;;;;;18.25;94.52;100247.37;1694361;83;25343;-77
2021/07/03 07:37:05;;;;;;;6.37;5.85;;;;;;;18.29;94.73;100247.17;1689456;83;26524;-74
2021/07/03 07:39:33;;;;;;;7.30;6.60;;;;;;;18.31;94.56;100244.20;1719660;81;25780;-75
2021/07/03 07:42:00;;;;;;;7.03;6.15;;;;;;;18.30;94.70;100248.00;1666091;82;28148;-74
2021/07/03 07:44:27;;;;;;;6.97;6.37;;;;;;;18.29;94.58;100251.77;1671072;83;25742;-75
2021/07/03 07:46:54;;;;;;;8.15;6.50;;;;;;;18.31;94.46;100250.98;1700301;84;26482;-74
2021/07/03 07:49:21;;;;;;;7.70;6.45;;;;;;;18.33;94.49;100247.50;1703074;81;25764;-75
2021/07/03 07:51:48;;;;;;;6.87;6.28;;;;;;;18.35;94.45;100246.72;1655382;82;25928;-75
2021/07/03 07:54:15;;;;;;;7.60;7.00;;;;;;;18.39;94.48;100254.67;1676735;83;28406;-75
2021/07/03 07:56:42;;;;;;;7.83;7.15;;;;;;;18.42;94.51;100252.80;1688910;83;25989;-75
2021/07/03 07:59:09;;;;;;;7.80;6.87;;;;;;;18.42;94.80;100252.28;1714448;83;25958;-75
2021/07/03 08:01:36;;;;;;;7.05;6.35;;;;;;;18.43;94.52;100255.27;1711671;82;26621;-75
2021/07/03 08:04:04;;;;;;;9.40;6.83;;;;;;;18.46;94.46;100255.34;1672560;82;25950;-74
2021/07/03 08:06:31;;;;;;;8.90;6.85;;;;;;;18.45;94.59;100255.88;1698611;82;28098;-74
2021/07/03 08:08:58;;;;;;;8.98;7.33;;;;;;;18.48;94.51;100259.19;1719317;82;25940;-74
2021/07/03 08:11:25;;;;;;;7.50;6.40;;;;;;;18.52;94.84;100257.63;1701651;82;25873;-74
2021/07/03 08:13:52;;;;;;;8.88;7.15;;;;;;;18.53;94.50;100264.15;1693467;82;25907;-75
2021/07/03 08:16:19;;;;;;;7.80;7.10;;;;;;;18.54;94.45;100263.63;1694152;83;25858;-75
2021/07/03 08:18:46;;;;;;;9.35;7.25;;;;;;;18.55;94.64;100266.08;1717376;82;27629;-75
2021/07/03 08:21:13;;;;;;;7.33;6.65;;;;;;;18.56;94.52;100262.84;1699746;82;25747;-75
2021/07/03 08:23:40;;;;;;;9.40;6.60;;;;;;;18.60;94.46;100268.05;1698315;82;26519;-75
2021/07/03 08:26:07;;;;;;;7.50;6.53;;;;;;;18.61;94.62;100272.39;1691925;82;26402;-75
2021/07/03 08:28:34;;;;;;;7.40;6.62;;;;;;;18.60;94.27;100266.70;1717428;82;26115;-74
2021/07/03 08:31:02;;;;;;;8.00;7.20;;;;;;;18.58;94.45;100264.24;1706279;82;28100;-75
2021/07/03 08:33:29;;;;;;;9.28;7.37;;;;;;;18.58;94.37;100271.55;1699228;82;25722;-75
2021/07/03 08:35:56;;;;;;;7.53;6.83;;;;;;;18.58;94.28;100275.63;1698944;82;25826;-74
2021/07/03 08:38:24;;;;;;;9.85;7.47;;;;;;;18.61;94.54;100277.82;1714238;82;25947;-75
2021/07/03 08:40:51;;;;;;;8.50;6.83;;;;;;;18.60;94.33;100277.02;1686108;82;26737;-74
2021/07/03 08:43:18;;;;;;;10.43;7.70;;;;;;;18.58;94.22;100276.45;1695395;82;27437;-74
2021/07/03 08:45:45;;;;;;;10.13;7.45;;;;;;;18.60;94.12;100277.55;1695175;82;25884;-73
2021/07/03 08:48:17;;;;;;;8.15;7.35;;;;;;;18.60;94.00;100279.73;1715873;82;25968;-75
2021/07/03 08:50:44;;;;;;;9.80;7.15;;;;;;;18.62;94.00;100280.84;1689898;82;25667;-75
2021/07/03 08:53:11;;;;;;;8.40;7.58;;;;;;;18.61;94.09;100283.25;1700247;82;25927;-75
2021/07/03 08:55:38;;;;;;;9.53;7.75;;;;;;;18.60;94.02;100278.38;1696855;82;27617;-74
2021/07/03 08:58:06;;;;;;;8.15;7.12;;;;;;;18.63;94.08;100281.11;1715482;83;25886;-75
2021/07/03 09:00:40;;;;;;;8.40;7.60;;;;;;;18.64;93.95;100280.88;1656595;83;25889;-75
2021/07/03 09:03:17;;;;;;;9.05;7.28;;;;;;;18.65;94.17;100279.80;1675095;83;25864;-75
2021/07/03 09:05:52;;;;;;;9.20;8.33;;;;;;;18.66;94.23;100279.27;1689588;83;25932;-75
2021/07/03 09:08:23;;;;;;;9.78;8.05;;;;;;;18.68;94.27;100278.48;1717193;81;27725;-75
2021/07/03 09:11:04;;;;;;;;;;;;;;;18.67;94.16;100283.08;1692651;83;26301;-75
2021/07/03 09:13:35;;;;;;;7.50;6.85;;;;;;;18.69;94.16;100286.93;1667989;84;26023;-74
2021/07/03 09:16:03;;;;;;;9.03;8.03;;;;;;;18.69;94.31;100281.50;1715634;83;25956;-74
2021/07/03 09:18:31;;;;;;;10.45;8.30;;;;;;;18.67;94.13;100289.07;1698060;83;25974;-75
2021/07/03 09:21:05;;;;;;;8.70;7.83;;;;;;;18.67;94.16;100283.08;1650677;83;28278;-75
2021/07/03 09:23:38;;;;;;;8.00;7.30;;;;;;;18.69;94.45;100286.93;1676253;83;25881;-74
2021/07/03 09:26:11;;;;;;;9.38;8.40;;;;;;;18.71;94.27;100279.36;1713956;83;26533;-74
2021/07/03 09:28:45;;;;;;;9.48;8.08;;;;;;;18.73;94.28;100275.34;1691166;82;26353;-74
2021/07/03 09:31:16;;;;;;;10.32;8.38;;;;;;;18.77;94.26;100279.20;1676269;82;26105;-75
2021/07/03 09:33:52;;;;;;;8.78;7.97;;;;;;;18.83;94.57;100275.48;1696945;82;28236;-74
2021/07/03 09:36:29;;;;;;;11.00;9.08;;;;;;;18.89;94.27;100283.98;1726371;82;26009;-75
2021/07/03 09:38:58;;;;;;;12.68;9.30;;;;;;;18.92;93.96;100277.25;1702327;83;25897;-75
2021/07/03 09:41:33;;;;;;;11.88;8.73;;;;;;;18.96;94.11;100279.22;1661836;82;25857;-74
2021/07/03 09:44:05;;;;;;;9.93;8.55;;;;;;;19.05;94.09;100282.33;1676787;82;25352;-74
2021/07/03 09:46:52;;;;;;;9.90;8.60;;;;;;;19.09;94.22;100282.94;1697054;83;27682;-75
2021/07/03 09:49:25;;;;;;;11.57;8.55;;;;;;;19.14;93.68;100281.64;1697459;82;26606;-74
2021/07/03 09:51:56;;;;;;;11.43;9.50;;;;;;;19.24;93.83;100289.95;1715371;82;26517;-75
2021/07/03 09:54:27;;;;;;;11.20;10.10;;;;;;;19.32;93.53;100296.00;1686625;82;25882;-75
2021/07/03 09:56:58;;;;;;;11.60;9.10;;;;;;;19.40;93.46;100284.72;1729391;82;25820;-75
2021/07/03 09:59:31;;;;;;;12.43;9.18;;;;;;;19.44;93.03;100288.05;1671644;84;27687;-75
2021/07/03 10:01:59;;;;;;;10.65;9.28;;;;;;;19.51;92.96;100289.22;1685308;84;26481;-75
2021/07/03 10:04:27;;;;;;;9.83;8.83;;;;;;;19.56;92.63;100286.58;1661146;84;25850;-75
2021/07/03 10:07:04;;;;;;;13.48;9.63;;;;;;;19.61;92.23;100285.30;1702446;84;25972;-75
2021/07/03 10:09:51;;;;;;;15.32;9.38;;;;;;;19.64;92.25;100283.41;1683851;84;25884;-75
2021/07/03 10:12:29;;;;;;;12.20;9.40;;;;;;;19.70;92.26;100279.14;1708055;83;27481;-75
2021/07/03 10:14:56;;;;;;;14.38;9.08;;;;;;;19.78;92.07;100284.12;1708455;83;25748;-75
2021/07/03 10:17:27;;;;;;;9.48;8.50;;;;;;;19.88;91.96;100280.70;1702622;84;25811;-75
2021/07/03 10:19:55;;;;;;;9.95;8.58;;;;;;;19.92;91.59;100278.59;1682637;84;26514;-74
2021/07/03 10:22:28;;;;;;;10.08;8.35;;;;;;;19.95;90.65;100279.98;1683795;83;25844;-76
2021/07/03 10:25:15;;;;;;;9.50;8.00;;;;;;;19.99;90.82;100272.95;1661167;84;28121;-75
2021/07/03 10:27:56;;;;;;;10.63;8.33;;;;;;;19.99;90.86;100266.95;1702525;84;25910;-75
2021/07/03 10:30:30;;;;;;;14.95;9.18;;;;;;;20.05;90.78;100267.84;1682914;83;25808;-75
2021/07/03 10:33:18;;;;;;;13.05;8.98;;;;;;;20.07;90.16;100264.86;1685529;83;25872;-74
2021/07/03 10:35:55;;;;;;;10.30;8.45;;;;;;;20.08;90.11;100257.00;1706734;82;26068;-75
2021/07/03 10:38:33;;;;;;;11.60;8.43;;;;;;;20.12;90.14;100260.84;1715723;82;27108;-75
2021/07/03 10:41:26;;;;;;;9.23;7.67;;;;;;;20.21;89.83;100261.49;1698180;82;26587;-76
2021/07/03 10:44:07;;;;;;;10.85;8.00;;;;;;;20.26;89.09;100261.55;1722164;82;25401;-75
2021/07/03 10:46:41;;;;;;;9.25;8.30;;;;;;;20.30;89.23;100253.69;1675462;82;25858;-75
2021/07/03 10:49:14;;;;;;;14.20;8.55;;;;;;;20.35;89.29;100249.66;1693935;82;26462;-75
2021/07/03 10:51:46;;;;;;;12.63;8.55;;;;;;;20.45;89.36;100249.73;1706820;83;28215;-75
2021/07/03 10:54:20;;;;;;;13.22;7.95;;;;;;;20.60;89.16;100247.14;1708085;83;26324;-76
2021/07/03 10:57:01;;;;;;;10.80;7.95;;;;;;;20.63;88.38;100252.91;1669445;84;25869;-74
2021/07/03 10:59:33;;;;;;;8.98;8.00;;;;;;;20.66;88.13;100255.08;1662133;83;26652;-75
2021/07/03 11:02:15;;;;;;;8.65;7.47;;;;;;;20.71;87.82;100249.69;1712953;83;26257;-75
2021/07/03 11:04:52;;;;;;;9.20;7.58;;;;;;;20.79;87.94;100251.09;1711752;82;27626;-76
2021/07/03 11:07:26;;;;;;;8.90;7.50;;;;;;;20.82;87.05;100245.66;1660512;83;26026;-76
2021/07/03 11:10:17;;;;;;;9.13;8.03;;;;;;;20.81;86.79;100248.13;1676021;83;25958;-74
2021/07/03 11:12:54;;;;;;;10.88;7.85;;;;;;;20.92;87.51;100245.19;1711552;83;25866;-76
2021/07/03 11:15:24;;;;;;;9.30;7.42;;;;;;;21.05;86.98;100247.48;1711473;83;26528;-75
2021/07/03 11:17:51;;;;;;;10.85;8.05;;;;;;;21.14;85.96;100245.91;1620854;84;27628;-75
2021/07/03 11:20:29;;;;;;;10.50;8.83;;;;;;;21.19;86.34;100243.75;1640885;84;25942;-74
2021/07/03 11:22:58;;;;;;;8.75;7.62;;;;;;;21.27;86.19;100242.71;1689414;84;25830;-74
2021/07/03 11:25:28;;;;;;;13.03;7.78;;;;;;;21.33;85.86;100242.18;1692396;84;25880;-75
2021/07/03 11:28:18;;;;;;;10.53;7.90;;;;;;;21.47;85.82;100240.05;1664356;84;26616;-74
2021/07/03 11:31:01;;;;;;;12.37;8.08;;;;;;;21.53;84.82;100245.00;1661300;84;27378;-75
2021/07/03 11:33:29;;;;;;;12.73;7.45;;;;;;;21.56;85.07;100234.91;1664127;84;25933;-75